Time;durP1;ratioP1;P1;durP2;ratioP2;P2;SDS_P1;SDS_P2;PMS_P1;PMS_P2;Temp;Humidity;BMP_temperature;BMP_pressure;BME280_temperature;BME280_humidity;BME280_pressure;Samples;Min_cycle;Max_cycle;Signal;HPM_P1;HPM_P2
2021/09/21 00:01:35;;;;;;;6.07;2.60;;;;;;;16.93;59.78;101860.88;4953354;28;20027;-96
2021/09/21 00:04:01;;;;;;;3.20;1.90;;;;;;;16.94;60.01;101867.91;4948555;29;20130;-96
2021/09/21 00:06:26;;;;;;;8.88;2.15;;;;;;;16.84;59.87;101874.78;4954131;28;20019;-95
2021/09/21 00:08:52;;;;;;;6.60;2.22;;;;;;;16.74;60.07;101876.38;4954562;28;20097;-95
2021/09/21 00:11:17;;;;;;;4.13;1.90;;;;;;;16.66;60.41;101883.06;4951205;28;20565;-95
2021/09/21 00:13:43;;;;;;;5.60;2.05;;;;;;;16.56;60.21;101874.06;4953112;28;20023;-96
2021/09/21 00:16:09;;;;;;;4.57;1.50;;;;;;;16.56;60.72;101878.53;4953987;28;20059;-95
2021/09/21 00:18:35;;;;;;;4.68;1.60;;;;;;;16.63;60.53;101880.63;4953744;28;20033;-95
2021/09/21 00:21:00;;;;;;;5.15;1.73;;;;;;;16.70;60.76;101889.00;4954174;28;20031;-95
2021/09/21 00:23:27;;;;;;;5.68;1.42;;;;;;;16.69;60.61;101883.84;4953669;28;20027;-95
2021/09/21 00:25:52;;;;;;;2.53;1.05;;;;;;;16.55;60.88;101883.00;4953922;28;20078;-96
2021/09/21 00:28:18;;;;;;;8.60;1.77;;;;;;;16.46;61.17;101886.28;4941665;28;20461;-95
2021/09/21 00:30:48;;;;;;;4.32;1.33;;;;;;;16.42;61.12;101882.97;4938066;29;20043;-95
2021/09/21 00:33:19;;;;;;;3.63;1.70;;;;;;;16.29;61.83;101891.88;4934339;29;20540;-95
2021/09/21 00:35:47;;;;;;;3.05;1.50;;;;;;;16.29;62.15;101897.19;4950556;28;20038;-95
2021/09/21 00:38:15;;;;;;;4.80;2.00;;;;;;;16.21;62.03;101898.56;4952604;29;20078;-95
2021/09/21 00:40:42;;;;;;;3.63;1.80;;;;;;;16.20;62.19;101894.22;4953787;28;20367;-94
2021/09/21 00:43:08;;;;;;;4.60;2.28;;;;;;;16.04;62.37;101883.81;4952583;29;20031;-94
2021/09/21 00:45:33;;;;;;;4.57;2.58;;;;;;;16.28;61.98;101903.44;4953624;28;20028;-94
2021/09/21 00:47:59;;;;;;;6.38;2.63;;;;;;;16.36;60.93;101896.66;4953883;28;20078;-95
2021/09/21 00:50:27;;;;;;;4.50;2.40;;;;;;;16.22;61.63;101896.75;4953548;28;20126;-94
2021/09/21 00:52:55;;;;;;;7.35;2.83;;;;;;;16.10;62.28;101894.94;4952790;28;20109;-95
2021/09/21 00:55:21;;;;;;;7.55;3.00;;;;;;;15.81;62.78;101895.09;4953300;28;20363;-94
2021/09/21 00:57:47;;;;;;;8.00;2.47;;;;;;;15.84;62.47;101897.53;4949637;28;20063;-94
2021/09/21 01:00:14;;;;;;;4.82;2.67;;;;;;;15.74;62.75;101902.59;4934084;29;20059;-96
2021/09/21 01:02:41;;;;;;;6.75;3.13;;;;;;;15.69;63.42;101894.06;4952053;29;20061;-93
2021/09/21 01:05:08;;;;;;;9.18;3.05;;;;;;;16.02;63.22;101898.13;4950338;29;20031;-95
2021/09/21 01:07:38;;;;;;;9.20;2.95;;;;;;;16.13;62.83;101903.50;4954422;28;20027;-94
2021/09/21 01:10:10;;;;;;;7.75;2.92;;;;;;;16.14;62.75;101910.53;4952751;28;20041;-95
2021/09/21 01:12:36;;;;;;;7.95;3.53;;;;;;;16.04;63.20;101905.00;4953105;28;20027;-95
2021/09/21 01:15:03;;;;;;;5.70;3.17;;;;;;;15.99;62.94;101896.50;4949537;28;20039;-94
2021/09/21 01:17:28;;;;;;;6.15;2.88;;;;;;;15.98;62.76;101899.28;4952784;28;20031;-95
2021/09/21 01:19:54;;;;;;;4.07;2.60;;;;;;;15.94;62.34;101893.31;4953487;28;20038;-95
2021/09/21 01:22:19;;;;;;;4.85;2.42;;;;;;;15.90;62.68;101894.47;4951575;29;20027;-95
2021/09/21 01:24:45;;;;;;;7.00;2.55;;;;;;;15.79;62.69;101904.94;4953899;28;20027;-95
2021/09/21 01:27:11;;;;;;;7.18;2.42;;;;;;;15.70;63.27;101911.66;4955279;28;20387;-95
2021/09/21 01:29:37;;;;;;;7.25;3.42;;;;;;;15.68;63.80;101905.63;4955484;29;20070;-95
2021/09/21 01:32:03;;;;;;;4.93;2.72;;;;;;;15.72;63.27;101898.31;4954793;28;20031;-95
2021/09/21 01:34:28;;;;;;;6.00;2.45;;;;;;;15.74;63.46;101907.91;4955873;28;20030;-94
2021/09/21 01:36:54;;;;;;;4.63;2.92;;;;;;;15.72;63.59;101904.47;4948522;28;20114;-95
2021/09/21 01:39:19;;;;;;;7.50;2.80;;;;;;;15.73;63.42;101905.34;4956053;28;20121;-96
2021/09/21 01:41:46;;;;;;;4.55;2.63;;;;;;;15.76;62.99;101898.06;4966020;28;20038;-93
2021/09/21 01:44:16;;;;;;;6.40;2.50;;;;;;;15.77;63.16;101907.69;4969498;28;20051;-93
2021/09/21 01:46:41;;;;;;;6.30;2.88;;;;;;;15.74;63.16;101907.91;4966582;28;20378;-94
2021/09/21 01:49:06;;;;;;;6.00;2.80;;;;;;;15.70;62.78;101913.44;4963746;28;20032;-93
2021/09/21 01:51:35;;;;;;;5.55;2.60;;;;;;;15.61;62.79;101905.16;4963472;29;20035;-92
2021/09/21 01:54:16;;;;;;;5.00;2.50;;;;;;;15.69;62.63;101912.59;4964381;29;20086;-92
2021/09/21 01:59:27;;;;;;;7.97;2.80;;;;;;;15.41;63.34;101900.31;4945432;29;20051;-92
2021/09/21 02:01:53;;;;;;;6.28;2.30;;;;;;;15.34;63.65;101893.72;4963873;29;20028;-93
2021/09/21 02:04:19;;;;;;;5.75;2.58;;;;;;;15.37;62.84;101912.91;4968136;28;20028;-93
2021/09/21 02:06:45;;;;;;;3.70;2.17;;;;;;;15.36;63.85;101911.19;4967591;28;20039;-93
2021/09/21 02:09:12;;;;;;;7.20;2.22;;;;;;;15.42;63.28;101912.59;4970069;28;20046;-93
2021/09/21 02:11:39;;;;;;;3.78;1.98;;;;;;;15.39;63.68;101908.34;4968587;28;20024;-94
2021/09/21 02:14:08;;;;;;;7.25;2.65;;;;;;;15.32;63.54;101901.75;4973769;29;20043;-92
2021/09/21 02:16:34;;;;;;;3.45;1.77;;;;;;;15.21;63.43;101902.44;4973893;28;20027;-93
2021/09/21 02:19:00;;;;;;;2.30;1.33;;;;;;;15.15;64.06;101910.78;4965524;29;20023;-93
2021/09/21 02:21:26;;;;;;;2.60;1.52;;;;;;;15.06;63.69;101922.78;4963925;28;20624;-94
2021/09/21 02:23:53;;;;;;;2.15;1.50;;;;;;;15.07;63.14;101915.72;4972077;28;20019;-93
2021/09/21 02:26:18;;;;;;;3.38;1.77;;;;;;;15.14;63.95;101911.72;4976052;28;20042;-93
2021/09/21 02:28:44;;;;;;;1.90;1.40;;;;;;;15.10;63.52;101912.84;4972951;28;20482;-92
2021/09/21 02:31:09;;;;;;;2.55;1.20;;;;;;;15.11;63.61;101913.72;4972411;28;20038;-93
2021/09/21 02:33:35;;;;;;;7.97;1.63;;;;;;;15.06;63.83;101912.19;4959795;28;20027;-94
2021/09/21 02:36:01;;;;;;;3.15;1.67;;;;;;;15.09;64.31;101911.16;4955201;28;20031;-95
2021/09/21 02:38:27;;;;;;;4.60;1.35;;;;;;;15.07;63.70;101905.97;4956362;29;20181;-94
2021/09/21 02:40:53;;;;;;;3.65;1.40;;;;;;;15.09;63.86;101908.53;4954136;29;20110;-96
2021/09/21 02:43:18;;;;;;;4.53;1.60;;;;;;;14.87;63.70;101901.94;4955525;28;20742;-94
2021/09/21 02:45:44;;;;;;;3.67;1.35;;;;;;;14.77;63.72;101902.56;4955709;28;20544;-95
2021/09/21 02:48:09;;;;;;;2.88;1.58;;;;;;;14.74;63.54;101905.44;4954901;29;20044;-95
2021/09/21 02:50:35;;;;;;;3.78;1.63;;;;;;;14.67;64.64;101912.88;4956372;28;20370;-95
2021/09/21 02:53:01;;;;;;;4.57;1.92;;;;;;;14.73;65.17;101914.28;4955204;28;20027;-95
2021/09/21 02:55:27;;;;;;;3.10;1.40;;;;;;;14.75;65.20;101915.91;4954233;28;20117;-95
2021/09/21 02:57:52;;;;;;;3.00;1.85;;;;;;;14.82;64.75;101916.38;4954315;28;20159;-95
2021/09/21 03:00:23;;;;;;;3.55;1.92;;;;;;;14.82;64.59;101908.44;4954696;28;20027;-96
2021/09/21 03:02:49;;;;;;;2.95;1.77;;;;;;;14.81;64.14;101912.88;4956900;28;20023;-95
2021/09/21 03:05:19;;;;;;;2.15;1.30;;;;;;;14.84;64.11;101917.13;4954867;28;20395;-95
2021/09/21 03:07:53;;;;;;;2.47;1.33;;;;;;;14.78;64.09;101909.59;4953821;28;20165;-95
2021/09/21 03:10:38;;;;;;;2.58;1.38;;;;;;;14.71;64.66;101916.19;4954748;28;20038;-95
2021/09/21 03:18:32;;;;;;;3.13;1.88;;;;;;;14.50;65.29;101923.59;4954794;29;20046;-95
2021/09/21 03:20:57;;;;;;;3.50;1.48;;;;;;;14.61;64.89;101919.41;4955242;28;20032;-95
2021/09/21 03:23:24;;;;;;;3.78;1.27;;;;;;;14.74;64.93;101927.41;4955203;28;20077;-95
2021/09/21 03:25:49;;;;;;;5.43;1.35;;;;;;;14.72;65.27;101918.72;4951331;28;20070;-95
2021/09/21 03:28:15;;;;;;;3.13;1.40;;;;;;;14.72;64.82;101924.03;4951960;29;20114;-95
2021/09/21 03:30:40;;;;;;;3.47;1.48;;;;;;;14.77;64.97;101929.03;4954687;28;20034;-95
2021/09/21 03:33:06;;;;;;;3.13;1.58;;;;;;;14.80;65.21;101936.78;4955757;28;20031;-94
2021/09/21 03:35:31;;;;;;;4.50;1.55;;;;;;;14.63;64.78;101943.94;4954496;28;20122;-95
2021/09/21 03:37:57;;;;;;;4.47;1.17;;;;;;;14.62;65.05;101942.25;4952414;28;20023;-95
2021/09/21 03:40:22;;;;;;;3.75;0.82;;;;;;;14.67;64.94;101936.66;4954041;28;20106;-94
2021/09/21 03:42:48;;;;;;;2.42;0.88;;;;;;;14.74;65.14;101947.72;4954917;29;20038;-95
2021/09/21 03:45:14;;;;;;;2.75;0.93;;;;;;;14.74;65.04;101951.22;4953896;28;20481;-95
2021/09/21 03:47:39;;;;;;;4.22;0.90;;;;;;;14.71;64.92;101950.53;4953981;28;20025;-94
2021/09/21 03:50:06;;;;;;;1.60;0.90;;;;;;;14.74;64.59;101951.22;4955647;28;20035;-95
2021/09/21 03:52:31;;;;;;;2.33;0.85;;;;;;;14.72;65.03;101945.16;4953683;28;20029;-94
2021/09/21 03:54:57;;;;;;;1.90;0.98;;;;;;;14.74;64.98;101947.72;4953888;28;20027;-95
2021/09/21 03:57:22;;;;;;;2.85;1.08;;;;;;;14.74;64.87;101953.03;4953304;28;20027;-95
2021/09/21 03:59:48;;;;;;;1.80;0.95;;;;;;;14.70;64.87;101952.34;4953000;28;20090;-95
2021/09/21 04:02:13;;;;;;;2.55;1.13;;;;;;;14.65;65.09;101947.34;4949086;29;20382;-95
2021/09/21 04:04:39;;;;;;;1.55;1.00;;;;;;;14.65;64.90;101954.41;4954245;28;20034;-95
2021/09/21 04:07:04;;;;;;;3.15;1.20;;;;;;;14.62;64.84;101942.25;4954497;28;20086;-94
2021/09/21 04:09:29;;;;;;;1.88;1.02;;;;;;;14.57;64.77;101941.66;4951166;28;20103;-95
2021/09/21 04:11:55;;;;;;;1.70;1.05;;;;;;;14.58;64.68;101948.66;4951879;28;20023;-95
2021/09/21 04:14:21;;;;;;;3.60;1.35;;;;;;;14.64;65.25;101948.28;4953104;29;20041;-95
2021/09/21 04:16:46;;;;;;;2.80;1.27;;;;;;;14.53;64.97;101944.56;4955047;28;20034;-95
2021/09/21 04:19:11;;;;;;;2.88;1.20;;;;;;;14.46;65.11;101938.78;4953375;28;20028;-94
2021/09/21 04:21:37;;;;;;;2.20;1.27;;;;;;;14.42;65.30;101939.91;4953901;28;20118;-94
2021/09/21 04:24:03;;;;;;;3.53;0.90;;;;;;;14.50;65.13;101950.88;4952370;28;20027;-95
2021/09/21 04:26:28;;;;;;;4.03;1.58;;;;;;;14.53;65.33;101949.84;4951516;28;20102;-95
2021/09/21 04:28:54;;;;;;;2.40;1.50;;;;;;;14.54;64.96;101952.41;4953754;28;20078;-96
2021/09/21 04:31:23;;;;;;;4.22;1.73;;;;;;;14.55;64.68;101954.06;4954175;28;20484;-94
2021/09/21 04:33:49;;;;;;;1.83;1.10;;;;;;;14.55;65.04;101955.88;4953669;28;20474;-95
2021/09/21 04:36:14;;;;;;;4.88;1.02;;;;;;;14.50;64.84;101961.44;4952699;28;20043;-95
2021/09/21 04:38:40;;;;;;;2.47;1.27;;;;;;;14.50;65.19;101964.09;4951461;28;20043;-95
2021/09/21 04:41:06;;;;;;;2.17;1.40;;;;;;;14.51;65.64;101963.13;4953919;28;20027;-96
2021/09/21 04:43:35;;;;;;;3.20;1.70;;;;;;;14.47;65.28;101962.50;4952475;28;20054;-95
2021/09/21 04:46:01;;;;;;;3.97;1.65;;;;;;;14.50;65.57;101964.09;4953208;28;20034;-94
2021/09/21 04:48:26;;;;;;;3.72;1.80;;;;;;;14.50;65.56;101961.44;4951993;28;20031;-95
2021/09/21 04:50:52;;;;;;;3.75;1.50;;;;;;;14.50;64.93;101972.03;4952831;28;20094;-95
2021/09/21 04:53:17;;;;;;;3.75;1.45;;;;;;;14.46;65.62;101966.06;4952835;28;20039;-95
2021/09/21 04:55:43;;;;;;;4.43;1.50;;;;;;;14.55;65.75;101977.88;4952530;28;20477;-95
2021/09/21 04:58:08;;;;;;;2.92;1.35;;;;;;;14.53;66.19;101974.47;4953003;28;20035;-95
2021/09/21 05:00:33;;;;;;;3.55;1.90;;;;;;;14.47;66.21;101972.19;4953003;28;20035;-94
2021/09/21 05:02:59;;;;;;;4.07;1.80;;;;;;;14.38;66.90;101981.53;4952073;28;20027;-95
2021/09/21 05:05:24;;;;;;;3.90;1.95;;;;;;;14.35;67.31;101979.06;4941670;29;20707;-94
2021/09/21 05:07:50;;;;;;;3.25;1.50;;;;;;;14.42;66.98;101974.28;4936035;29;20024;-94
2021/09/21 05:10:16;;;;;;;3.88;1.75;;;;;;;14.49;67.03;101983.53;4951167;28;20118;-95
2021/09/21 05:12:42;;;;;;;3.10;1.20;;;;;;;14.51;66.86;101989.56;4951641;28;20024;-95
2021/09/21 05:15:08;;;;;;;4.10;1.60;;;;;;;14.43;67.01;101979.44;4951955;28;20047;-94
2021/09/21 05:17:34;;;;;;;2.88;1.60;;;;;;;14.37;67.15;101989.53;4952968;28;20031;-94
2021/09/21 05:19:59;;;;;;;6.07;1.88;;;;;;;14.41;66.90;101988.41;4953124;29;20390;-94
2021/09/21 05:22:25;;;;;;;2.60;1.75;;;;;;;14.44;66.62;101982.97;4951927;28;20501;-93
2021/09/21 05:24:50;;;;;;;4.18;1.63;;;;;;;14.34;66.40;101984.44;4951897;28;20031;-94
2021/09/21 05:27:15;;;;;;;2.88;1.80;;;;;;;14.23;66.86;101979.78;4953275;28;20034;-94
2021/09/21 05:29:41;;;;;;;3.92;1.63;;;;;;;14.19;66.50;101983.53;4952708;28;20038;-94
2021/09/21 05:32:06;;;;;;;3.80;1.85;;;;;;;14.32;66.93;101994.25;4953330;29;20023;-95
2021/09/21 05:34:31;;;;;;;3.33;1.90;;;;;;;14.32;67.00;101995.09;4954245;28;20031;-95
2021/09/21 05:36:57;;;;;;;3.92;1.50;;;;;;;14.27;66.56;101991.88;4947542;28;20487;-94
2021/09/21 05:39:22;;;;;;;1.58;1.13;;;;;;;14.31;66.70;101989.91;4950436;28;20038;-94
2021/09/21 05:41:47;;;;;;;4.40;1.30;;;;;;;14.22;66.54;101986.88;4949937;28;20027;-95
2021/09/21 05:44:13;;;;;;;4.10;1.50;;;;;;;14.20;66.13;101995.81;4946497;28;20027;-95
2021/09/21 05:46:38;;;;;;;2.47;1.65;;;;;;;14.20;66.41;101994.03;4947025;28;20033;-94
2021/09/21 05:49:04;;;;;;;6.03;1.50;;;;;;;14.14;66.21;101986.47;4944395;28;20071;-94
2021/09/21 05:51:30;;;;;;;2.10;1.42;;;;;;;14.10;65.97;101984.94;4949288;29;20122;-95
2021/09/21 05:53:55;;;;;;;3.00;1.33;;;;;;;14.05;66.55;101994.91;4950233;29;20027;-93
2021/09/21 05:56:22;;;;;;;4.85;1.98;;;;;;;14.33;66.27;101995.94;4949706;28;20061;-92
2021/09/21 05:58:47;;;;;;;3.25;2.00;;;;;;;14.45;65.10;102005.78;4953647;28;20549;-92
2021/09/21 06:01:13;;;;;;;4.85;1.50;;;;;;;14.43;65.30;102012.97;4957380;28;20039;-93
2021/09/21 06:03:39;;;;;;;3.08;1.90;;;;;;;14.44;65.21;102006.75;4957971;28;20065;-94
2021/09/21 06:06:23;;;;;;;4.32;1.63;;;;;;;14.38;65.59;102004.47;4958457;28;20379;-96
2021/09/21 06:08:49;;;;;;;3.53;2.15;;;;;;;14.41;65.39;102020.97;4958835;29;20454;-94
2021/09/21 06:11:20;;;;;;;3.10;1.60;;;;;;;14.39;65.41;102014.09;4957044;28;20031;-93
2021/09/21 06:13:49;;;;;;;3.08;2.00;;;;;;;14.38;66.25;102025.59;4957629;28;20046;-95
2021/09/21 06:16:16;;;;;;;4.47;2.45;;;;;;;14.51;65.88;102028.38;4955746;28;20094;-94
2021/09/21 06:18:41;;;;;;;8.07;2.10;;;;;;;14.45;66.00;102014.59;4956206;28;20508;-94
2021/09/21 06:21:07;;;;;;;5.72;1.88;;;;;;;14.55;66.62;102024.59;4955861;28;20039;-92
2021/09/21 06:23:33;;;;;;;4.78;1.90;;;;;;;14.57;66.39;102020.94;4955636;28;20556;-94
2021/09/21 06:25:58;;;;;;;2.83;1.58;;;;;;;14.50;66.82;102024.03;4954226;28;20016;-93
2021/09/21 06:28:23;;;;;;;4.85;2.10;;;;;;;14.45;67.05;102026.94;4954253;28;20031;-93
2021/09/21 06:30:49;;;;;;;3.97;1.95;;;;;;;14.48;67.12;102029.41;4955852;28;20035;-93
2021/09/21 06:33:14;;;;;;;5.10;1.60;;;;;;;14.46;66.66;102034.78;4955760;28;20031;-94
2021/09/21 06:35:39;;;;;;;4.18;1.83;;;;;;;14.49;66.81;102028.44;4956139;28;20499;-94
2021/09/21 06:38:05;;;;;;;4.22;1.80;;;;;;;14.52;66.64;102030.94;4956461;28;20019;-94
2021/09/21 06:40:30;;;;;;;3.25;1.75;;;;;;;14.58;66.32;102035.88;4956613;28;20210;-94
2021/09/21 06:42:56;;;;;;;4.28;1.60;;;;;;;14.60;66.19;102041.09;4956287;28;20381;-95
2021/09/21 06:45:21;;;;;;;2.97;1.80;;;;;;;14.60;66.53;102028.72;4955289;28;20047;-94
2021/09/21 06:47:47;;;;;;;2.38;1.42;;;;;;;14.73;66.83;102030.63;4955167;29;20024;-94
2021/09/21 06:50:13;;;;;;;4.75;2.03;;;;;;;14.80;67.18;102029.31;4954868;29;20399;-94
2021/09/21 06:52:39;;;;;;;7.22;2.10;;;;;;;14.81;67.07;102028.38;4956355;28;20106;-94
2021/09/21 06:55:05;;;;;;;2.45;1.80;;;;;;;14.93;67.06;102032.94;4956566;28;20092;-94
2021/09/21 06:57:31;;;;;;;5.70;2.47;;;;;;;15.01;66.88;102033.31;4955887;29;20031;-91
2021/09/21 06:59:57;;;;;;;3.40;2.30;;;;;;;15.41;66.37;102037.94;4956053;29;20434;-92
2021/09/21 07:02:24;;;;;;;5.63;1.98;;;;;;;15.62;65.75;102047.19;4956151;29;20031;-92
2021/09/21 07:04:49;;;;;;;2.25;1.77;;;;;;;15.72;65.68;102039.53;4955425;29;20027;-91
2021/09/21 07:07:15;;;;;;;3.25;1.80;;;;;;;15.86;65.03;102039.50;4955786;29;20493;-90
2021/09/21 07:09:40;;;;;;;4.65;1.92;;;;;;;15.84;64.58;102035.28;4955217;28;20043;-90
2021/09/21 07:12:06;;;;;;;4.57;1.90;;;;;;;15.90;64.67;102028.72;4954463;29;20030;-91
2021/09/21 07:14:31;;;;;;;6.68;2.33;;;;;;;16.05;64.41;102033.00;4953395;29;20418;-92
2021/09/21 07:16:56;;;;;;;4.90;1.67;;;;;;;16.19;64.24;102040.94;4954352;28;20035;-92
2021/09/21 07:19:22;;;;;;;3.20;2.08;;;;;;;16.33;64.20;102044.44;4953605;29;20031;-91
2021/09/21 07:21:47;;;;;;;3.45;2.05;;;;;;;16.42;64.32;102042.03;4953781;29;20031;-91
2021/09/21 07:24:15;;;;;;;4.57;1.90;;;;;;;16.56;64.07;102053.53;4954214;28;20031;-92
2021/09/21 07:26:41;;;;;;;5.03;2.08;;;;;;;16.75;63.55;102046.03;4954670;28;20027;-92
2021/09/21 07:29:06;;;;;;;5.05;2.60;;;;;;;16.88;62.48;102048.72;4954571;29;20031;-91
2021/09/21 07:31:32;;;;;;;3.92;2.10;;;;;;;17.08;63.01;102047.38;4955809;29;20023;-92
2021/09/21 07:33:57;;;;;;;4.40;2.10;;;;;;;17.17;62.03;102048.50;4954077;28;20497;-92
2021/09/21 07:36:22;;;;;;;4.47;2.40;;;;;;;17.36;61.64;102064.00;4954492;28;20023;-92
2021/09/21 07:38:48;;;;;;;5.55;2.58;;;;;;;17.42;61.01;102048.50;4954300;28;20057;-91
2021/09/21 07:41:13;;;;;;;5.68;2.55;;;;;;;17.52;59.92;102059.31;4954771;28;20076;-92
2021/09/21 07:43:40;;;;;;;5.93;2.30;;;;;;;17.67;60.04;102070.63;4954073;28;20042;-92
2021/09/21 07:46:05;;;;;;;8.63;2.25;;;;;;;17.83;59.64;102063.31;4954564;28;20545;-92
2021/09/21 07:48:31;;;;;;;7.03;3.10;;;;;;;18.12;59.40;102067.44;4954281;28;20107;-92
2021/09/21 07:50:56;;;;;;;4.75;2.10;;;;;;;18.37;58.05;102067.31;4955926;28;20027;-92
2021/09/21 07:53:22;;;;;;;6.18;1.85;;;;;;;18.79;58.46;102073.03;4955750;28;20051;-92
2021/09/21 07:55:50;;;;;;;4.05;2.20;;;;;;;19.64;56.42;102071.78;4955456;28;20106;-92
2021/09/21 07:58:16;;;;;;;6.65;2.28;;;;;;;20.37;55.10;102078.28;4955271;28;20063;-92
2021/09/21 08:00:42;;;;;;;5.53;2.45;;;;;;;21.20;53.41;102084.63;4955543;28;20308;-93
2021/09/21 08:03:07;;;;;;;7.93;2.65;;;;;;;21.97;50.93;102085.06;4954655;28;20496;-92
2021/09/21 08:05:33;;;;;;;3.13;2.05;;;;;;;21.77;50.55;102079.66;4954749;28;20027;-93
2021/09/21 08:07:59;;;;;;;7.82;2.38;;;;;;;21.78;51.83;102080.50;4954632;28;20026;-92
2021/09/21 08:10:24;;;;;;;10.25;2.80;;;;;;;21.70;51.40;102088.38;4954675;28;20461;-92
2021/09/21 08:12:50;;;;;;;3.47;1.83;;;;;;;21.75;51.62;102091.50;4954619;28;20027;-92
2021/09/21 08:15:16;;;;;;;3.58;2.03;;;;;;;21.57;52.27;102092.13;4953846;28;20038;-92
2021/09/21 08:17:42;;;;;;;4.78;2.03;;;;;;;21.55;51.52;102096.78;4955375;29;20027;-93
2021/09/21 08:20:08;;;;;;;5.85;2.55;;;;;;;21.47;52.19;102093.94;4954515;29;20109;-93
2021/09/21 08:22:34;;;;;;;5.20;2.05;;;;;;;21.54;52.19;102094.22;4952396;28;20031;-92
2021/09/21 08:25:00;;;;;;;8.43;2.58;;;;;;;21.51;51.63;102099.84;4954182;28;20034;-92
2021/09/21 08:27:26;;;;;;;5.15;1.42;;;;;;;21.38;52.39;102087.50;4953512;28;20023;-92
2021/09/21 08:29:52;;;;;;;4.57;1.80;;;;;;;21.43;52.16;102088.97;4953253;28;20054;-92
2021/09/21 08:32:17;;;;;;;3.85;2.03;;;;;;;21.64;53.26;102089.75;4952399;28;20027;-91
2021/09/21 08:34:42;;;;;;;5.45;2.20;;;;;;;22.22;50.79;102098.91;4953432;28;20073;-92
2021/09/21 08:37:08;;;;;;;5.38;2.47;;;;;;;22.09;50.42;102094.66;4953403;28;20106;-92
2021/09/21 08:39:34;;;;;;;5.05;3.08;;;;;;;21.96;50.34;102094.91;4953238;28;20027;-92
2021/09/21 08:41:59;;;;;;;9.05;2.95;;;;;;;22.17;50.03;102100.16;4952711;28;20011;-92
2021/09/21 08:44:24;;;;;;;9.32;2.47;;;;;;;22.55;48.97;102092.31;4954015;28;20119;-92
2021/09/21 08:46:50;;;;;;;8.68;2.42;;;;;;;22.55;49.03;102093.16;4952273;28;20118;-92
2021/09/21 08:49:16;;;;;;;5.22;2.60;;;;;;;23.29;47.79;102088.09;4952932;29;20027;-92
2021/09/21 08:51:42;;;;;;;7.85;2.50;;;;;;;23.58;47.14;102101.38;4953995;28;20035;-92
2021/09/21 08:54:07;;;;;;;8.25;2.55;;;;;;;24.30;45.53;102104.19;4953642;28;20359;-90
2021/09/21 08:56:33;;;;;;;4.35;2.50;;;;;;;25.00;44.30;102098.94;4952987;28;20031;-92
2021/09/21 08:59:03;;;;;;;4.70;2.58;;;;;;;24.73;44.37;102092.69;4953171;28;20114;-92
2021/09/21 09:01:48;;;;;;;10.45;2.53;;;;;;;25.60;43.24;102108.84;4948492;29;20456;-92
2021/09/21 09:04:16;;;;;;;6.05;2.25;;;;;;;26.06;41.90;102105.81;4952479;29;20102;-93
2021/09/21 09:06:53;;;;;;;6.05;2.05;;;;;;;26.47;41.69;102097.78;4952885;28;20027;-93
2021/09/21 09:09:24;;;;;;;5.00;2.55;;;;;;;26.76;41.43;102099.13;4949744;29;20400;-92
2021/09/21 09:11:52;;;;;;;9.18;2.45;;;;;;;26.41;41.83;102101.97;4952566;28;20031;-92
2021/09/21 09:14:26;;;;;;;6.50;2.08;;;;;;;27.34;40.37;102108.81;4951107;29;20032;-93
2021/09/21 09:16:57;;;;;;;6.30;2.45;;;;;;;27.67;39.88;102108.69;4950995;28;20042;-92
2021/09/21 09:19:42;;;;;;;5.32;1.95;;;;;;;28.11;38.83;102116.22;4952623;29;20031;-91
2021/09/21 09:22:14;;;;;;;7.28;1.90;;;;;;;28.30;38.86;102117.63;4955381;29;20043;-95
2021/09/21 09:24:48;;;;;;;5.38;2.00;;;;;;;28.83;38.61;102113.16;4952590;28;20493;-87
2021/09/21 09:27:14;;;;;;;6.88;1.77;;;;;;;29.25;36.98;102113.56;4952782;28;20042;-88
2021/09/21 09:29:54;;;;;;;4.43;1.90;;;;;;;29.23;36.95;102115.63;4989350;23;20039;-84
2021/09/21 09:32:20;;;;;;;6.85;2.40;;;;;;;29.11;37.28;102107.13;4990851;28;20022;-92
2021/09/21 09:34:45;;;;;;;5.07;2.38;;;;;;;29.60;36.57;102111.97;4994014;28;20163;-86
2021/09/21 09:37:10;;;;;;;9.00;1.95;;;;;;;29.70;36.25;102099.97;4986421;28;20041;-87
2021/09/21 09:39:36;;;;;;;6.30;1.95;;;;;;;30.00;36.56;102115.16;4990674;28;20030;-86
2021/09/21 09:42:02;;;;;;;6.53;1.40;;;;;;;30.24;35.46;102111.22;4983142;28;20464;-87
2021/09/21 09:44:32;;;;;;;5.68;2.42;;;;;;;30.57;35.10;102115.28;4994019;28;20031;-89
2021/09/21 09:47:04;;;;;;;9.40;1.80;;;;;;;30.81;35.07;102112.16;4976739;28;20026;-89
2021/09/21 09:49:35;;;;;;;7.25;2.00;;;;;;;31.13;34.26;102111.78;4986839;28;20069;-91
2021/09/21 09:52:04;;;;;;;8.20;2.00;;;;;;;31.44;34.01;102114.03;4987422;28;20113;-91
2021/09/21 09:54:31;;;;;;;8.02;1.67;;;;;;;31.85;33.92;102115.03;4987856;28;20041;-95
2021/09/21 09:56:57;;;;;;;8.65;2.13;;;;;;;32.07;32.61;102113.88;4986089;28;20038;-93
2021/09/21 09:59:24;;;;;;;4.50;1.48;;;;;;;32.71;32.23;102117.06;4987788;28;20022;-88
2021/09/21 10:01:49;;;;;;;12.07;2.28;;;;;;;33.00;31.82;102113.91;4986219;28;20022;-86
2021/09/21 10:04:15;;;;;;;13.60;3.30;;;;;;;33.21;30.94;102102.97;4986271;28;20034;-86
2021/09/21 10:06:41;;;;;;;11.35;2.22;;;;;;;33.47;31.19;102113.75;4985186;28;20033;-86
2021/09/21 10:09:10;;;;;;;4.20;1.10;;;;;;;33.45;30.89;102113.13;4984123;28;20031;-96
2021/09/21 10:11:36;;;;;;;4.20;1.20;;;;;;;33.15;30.94;102121.00;4984676;28;20053;-93
2021/09/21 10:14:03;;;;;;;4.63;1.45;;;;;;;33.66;30.18;102119.38;4982703;28;20022;-96
2021/09/21 10:16:29;;;;;;;1.67;0.90;;;;;;;33.54;30.40;102111.84;4987747;28;20034;-88
2021/09/21 10:18:56;;;;;;;8.55;1.20;;;;;;;34.14;30.72;102107.97;4986467;28;20031;-88
2021/09/21 10:21:37;;;;;;;4.10;1.13;;;;;;;33.47;30.42;102108.31;4976022;28;20027;-88
2021/09/21 10:24:04;;;;;;;;;;;;;;;33.79;30.20;102102.97;4973618;28;20082;-88
2021/09/21 10:26:30;;;;;;;3.58;1.20;;;;;;;33.95;30.17;102107.91;4992448;28;20415;-88
2021/09/21 10:28:59;;;;;;;3.20;0.88;;;;;;;33.82;30.90;102107.16;4976040;28;20070;-94
2021/09/21 10:31:26;;;;;;;6.18;1.63;;;;;;;34.21;29.69;102102.53;4989376;28;20358;-88
2021/09/21 10:33:52;;;;;;;5.25;1.10;;;;;;;34.63;29.59;102095.44;4980623;28;20031;-88
2021/09/21 10:36:32;;;;;;;68.97;5.45;;;;;;;34.23;29.06;102095.78;4975257;28;20015;-88
2021/09/21 10:39:11;;;;;;;5.65;1.30;;;;;;;34.84;30.00;102096.94;4974897;28;20031;-88
2021/09/21 10:42:13;;;;;;;41.47;6.07;;;;;;;34.80;28.75;102090.28;4975597;28;20030;-88
2021/09/21 10:44:51;;;;;;;35.42;5.10;;;;;;;35.43;28.34;102096.50;4971282;28;20042;-88
2021/09/21 10:47:23;;;;;;;29.95;4.72;;;;;;;34.71;28.48;102087.00;4992673;28;20109;-88
2021/09/21 10:49:48;;;;;;;4.50;1.25;;;;;;;35.07;28.74;102095.44;4977683;28;20043;-88
2021/09/21 10:52:17;;;;;;;5.78;1.17;;;;;;;35.23;28.50;102088.56;4983952;28;20129;-88
2021/09/21 10:54:54;;;;;;;3.55;1.15;;;;;;;35.62;29.05;102089.94;4989237;28;20504;-88
2021/09/21 10:57:40;;;;;;;5.35;1.35;;;;;;;35.92;27.19;102076.31;4979376;28;20030;-88
2021/09/21 11:00:11;;;;;;;2.08;0.80;;;;;;;36.43;27.36;102075.91;4986481;28;20325;-88
2021/09/21 11:02:39;;;;;;;4.65;1.27;;;;;;;36.47;27.35;102082.56;4980781;28;20026;-88
2021/09/21 11:05:07;;;;;;;5.78;1.70;;;;;;;35.64;27.68;102084.25;4986842;28;20429;-88
2021/09/21 11:07:35;;;;;;;3.60;1.40;;;;;;;36.24;27.22;102073.31;4987659;28;20030;-89
2021/09/21 11:10:00;;;;;;;12.85;2.38;;;;;;;35.61;26.42;102077.34;4983023;28;20027;-89
2021/09/21 11:12:26;;;;;;;4.78;1.60;;;;;;;35.02;27.67;102082.47;4975801;28;20033;-88
2021/09/21 11:14:54;;;;;;;2.63;0.90;;;;;;;35.73;26.44;102083.72;4978378;28;20469;-88
2021/09/21 11:17:26;;;;;;;4.88;1.52;;;;;;;35.91;27.14;102085.56;4976569;28;20122;-88
2021/09/21 11:19:54;;;;;;;3.05;1.00;;;;;;;36.22;27.02;102080.91;4975031;28;20022;-88
2021/09/21 11:22:29;;;;;;;4.35;1.67;;;;;;;36.18;26.82;102078.84;4984578;28;20161;-88
2021/09/21 11:25:00;;;;;;;4.13;1.20;;;;;;;36.16;26.23;102073.66;4962772;28;20018;-86
2021/09/21 11:27:27;;;;;;;2.78;1.00;;;;;;;36.03;27.17;102068.38;4980903;28;20121;-87
2021/09/21 11:30:07;;;;;;;2.88;1.38;;;;;;;35.51;27.12;102066.97;4974287;28;20384;-88
2021/09/21 11:32:34;;;;;;;25.42;3.67;;;;;;;35.90;28.03;102069.38;4974515;28;20062;-87